createdAt,value
2019-04-14T00:02:01.085Z,5.79
2019-04-14T00:04:35.453Z,5.78
2019-04-14T00:07:03.999Z,5.81
2019-04-14T00:09:33.641Z,5.76
2019-04-14T00:12:05.590Z,5.81
2019-04-14T00:14:33.677Z,5.82
2019-04-14T00:17:02.289Z,5.77
2019-04-14T00:19:30.767Z,5.78
2019-04-14T00:22:01.090Z,5.71
2019-04-14T00:24:29.605Z,5.75
2019-04-14T00:26:58.100Z,5.71
2019-04-14T00:29:26.636Z,5.75
2019-04-14T00:31:56.889Z,5.77
2019-04-14T00:34:46.347Z,5.72
2019-04-14T00:37:16.678Z,5.69
2019-04-14T00:39:46.829Z,5.73
2019-04-14T00:42:19.731Z,5.72
2019-04-14T00:44:49.736Z,5.74
2019-04-14T00:47:36.545Z,5.69
2019-04-14T00:50:06.234Z,5.73
2019-04-14T00:52:34.721Z,5.61
2019-04-14T00:55:03.366Z,5.59
2019-04-14T00:57:31.872Z,5.59
2019-04-14T01:00:00.256Z,5.58
2019-04-14T01:02:29.706Z,5.55
2019-04-14T01:04:58.328Z,5.56
2019-04-14T01:07:28.272Z,5.56
2019-04-14T01:09:57.537Z,5.59
2019-04-14T01:12:26.225Z,5.57
2019-04-14T01:14:55.920Z,5.53
2019-04-14T01:17:24.540Z,5.53
2019-04-14T01:19:52.971Z,5.56
2019-04-14T01:22:22.700Z,5.53
2019-04-14T01:24:51.541Z,5.61
2019-04-14T01:27:21.094Z,5.57
2019-04-14T01:29:49.608Z,5.56
2019-04-14T01:32:18.151Z,5.59
2019-04-14T01:34:47.608Z,5.62
2019-04-14T01:37:16.080Z,5.57
2019-04-14T01:39:44.457Z,5.54
2019-04-14T01:42:13.786Z,5.53
2019-04-14T01:44:42.277Z,5.54
2019-04-14T01:47:11.678Z,5.44
2019-04-14T01:49:40.162Z,5.44
2019-04-14T01:52:29.531Z,5.42
2019-04-14T01:55:15.761Z,5.43
2019-04-14T01:57:48.791Z,5.46
2019-04-14T02:00:22.749Z,5.42
2019-04-14T02:02:51.475Z,5.38
2019-04-14T02:05:21.424Z,5.41
2019-04-14T02:07:50.016Z,5.42
2019-04-14T02:10:19.434Z,5.32
2019-04-14T02:12:47.926Z,5.37
2019-04-14T02:15:17.904Z,5.35
2019-04-14T02:17:46.517Z,5.32
2019-04-14T02:20:16.361Z,5.31
2019-04-14T02:22:44.718Z,5.29
2019-04-14T02:25:14.176Z,5.36
2019-04-14T02:27:42.965Z,5.28
2019-04-14T02:30:17.352Z,5.22
2019-04-14T02:33:13.860Z,5.28
2019-04-14T02:35:51.637Z,5.29
2019-04-14T02:38:14.025Z,5.28
2019-04-14T02:40:49.175Z,5.17
2019-04-14T02:43:17.135Z,5.13
2019-04-14T02:45:46.780Z,5.04
2019-04-14T02:48:36.110Z,5.03
2019-04-14T02:50:40.290Z,4.99
2019-04-14T02:53:15.914Z,5.03
2019-04-14T02:55:44.804Z,5.02
2019-04-14T02:58:12.554Z,5.04
2019-04-14T03:00:42.061Z,5.07
2019-04-14T03:03:19.584Z,4.99
2019-04-14T03:05:47.840Z,5.00
2019-04-14T03:08:15.598Z,4.98
2019-04-14T03:10:43.896Z,4.97
2019-04-14T03:13:13.336Z,4.91
2019-04-14T03:21:03.913Z,4.94
2019-04-14T03:23:46.972Z,4.95
2019-04-14T03:26:11.658Z,5.03
2019-04-14T03:34:17.772Z,4.87
2019-04-14T03:36:58.266Z,4.82
2019-04-14T03:38:53.210Z,4.80
2019-04-14T03:41:25.904Z,4.85
2019-04-14T03:43:43.172Z,4.86
2019-04-14T03:46:36.177Z,4.87
2019-04-14T03:53:47.265Z,4.89
2019-04-14T03:56:02.328Z,4.91
2019-04-14T03:58:27.359Z,4.92
2019-04-14T04:00:55.919Z,4.89
2019-04-14T04:03:24.282Z,4.85
2019-04-14T04:05:52.754Z,4.88
2019-04-14T04:08:22.257Z,4.82
2019-04-14T04:10:53.260Z,4.85
2019-04-14T04:13:22.156Z,4.83
2019-04-14T04:15:51.883Z,4.91
2019-04-14T04:18:22.591Z,4.83
2019-04-14T04:20:52.783Z,4.82
2019-04-14T04:23:40.306Z,4.89
2019-04-14T04:26:27.845Z,4.88
2019-04-14T04:28:58.330Z,4.94
2019-04-14T04:31:28.678Z,4.89
2019-04-14T04:34:01.446Z,4.88
2019-04-14T04:36:35.337Z,4.92
2019-04-14T04:39:25.789Z,4.93
2019-04-14T04:41:54.341Z,4.96
2019-04-14T04:44:22.987Z,4.93
2019-04-14T04:46:52.627Z,4.87
2019-04-14T04:49:24.853Z,4.87
2019-04-14T04:51:51.366Z,4.78
2019-04-14T04:54:21.048Z,4.77
2019-04-14T04:56:49.524Z,4.74
2019-04-14T04:59:18.936Z,4.71
2019-04-14T05:01:47.617Z,4.68
2019-04-14T05:04:17.409Z,4.67
2019-04-14T05:06:57.448Z,4.68
2019-04-14T05:09:38.831Z,4.62
2019-04-14T05:12:09.467Z,4.56
2019-04-14T05:14:39.503Z,4.53
2019-04-14T05:17:08.095Z,4.52
2019-04-14T05:19:39.367Z,4.53
2019-04-14T05:22:07.061Z,4.47
2019-04-14T05:24:37.475Z,4.39
2019-04-14T05:27:06.001Z,4.35
2019-04-14T05:29:34.688Z,4.34
2019-04-14T05:32:04.414Z,4.35
2019-04-14T05:34:33.072Z,4.32
2019-04-14T05:37:01.435Z,4.39
2019-04-14T05:39:30.787Z,4.45
2019-04-14T05:42:06.730Z,4.45
2019-04-14T05:44:29.709Z,4.38
2019-04-14T05:46:58.472Z,4.32
2019-04-14T05:49:36.491Z,4.25
2019-04-14T05:51:56.959Z,4.25
2019-04-14T05:54:25.435Z,4.25
2019-04-14T05:56:53.905Z,4.25
2019-04-14T05:59:22.724Z,4.32
2019-04-14T06:01:51.171Z,4.37
2019-04-14T06:04:20.033Z,4.29
2019-04-14T06:06:48.592Z,4.29
2019-04-14T06:09:18.556Z,4.29
2019-04-14T06:11:46.968Z,4.24
2019-04-14T06:14:15.344Z,4.24
2019-04-14T06:16:44.003Z,4.30
2019-04-14T06:19:12.729Z,4.28
2019-04-14T06:21:41.235Z,4.31
2019-04-14T06:24:11.331Z,4.35
2019-04-14T06:26:39.797Z,4.41
2019-04-14T06:29:08.606Z,4.38
2019-04-14T06:31:50.554Z,4.33
2019-04-14T06:34:29.427Z,4.27
2019-04-14T06:36:59.512Z,4.29
2019-04-14T06:39:32.308Z,4.19
2019-04-14T06:42:00.917Z,4.16
2019-04-14T06:44:29.272Z,4.10
2019-04-14T06:46:57.755Z,4.12
2019-04-14T06:49:26.470Z,4.05
2019-04-14T06:51:54.917Z,4.07
2019-04-14T06:54:23.381Z,4.13
2019-04-14T06:56:51.842Z,4.09
2019-04-14T06:59:20.611Z,4.10
2019-04-14T07:01:49.104Z,4.11
2019-04-14T07:04:17.453Z,4.08
2019-04-14T07:06:45.866Z,4.13
2019-04-14T07:09:14.274Z,4.23
2019-04-14T07:11:42.744Z,4.24
2019-04-14T07:14:11.130Z,4.29
2019-04-14T07:16:39.901Z,4.37
2019-04-14T07:19:08.520Z,4.41
2019-04-14T07:21:37.586Z,4.40
2019-04-14T07:24:07.095Z,4.45
2019-04-14T07:26:35.549Z,4.48
2019-04-14T07:29:04.238Z,4.48
2019-04-14T07:31:46.059Z,4.48
2019-04-14T07:34:31.525Z,4.48
2019-04-14T07:37:19.110Z,4.48
2019-04-14T07:39:58.204Z,4.48
2019-04-14T07:42:32.296Z,4.50
2019-04-14T07:45:02.395Z,4.46
2019-04-14T07:47:35.329Z,4.46
2019-04-14T07:50:17.062Z,4.44
2019-04-14T07:52:47.239Z,4.48
2019-04-14T07:55:19.781Z,4.49
2019-04-14T07:58:02.068Z,4.51
2019-04-14T08:00:35.150Z,4.59
2019-04-14T08:03:08.008Z,4.68
2019-04-14T08:05:40.597Z,4.61
2019-04-14T08:08:09.336Z,4.66
2019-04-14T08:10:37.799Z,4.62
2019-04-14T08:13:06.300Z,4.61
2019-04-14T08:15:34.779Z,4.65
2019-04-14T08:18:03.284Z,4.65
2019-04-14T08:20:31.875Z,4.76
2019-04-14T08:23:00.426Z,4.78
2019-04-14T08:25:28.957Z,4.82
2019-04-14T08:27:57.714Z,4.91
2019-04-14T08:30:26.300Z,4.88
2019-04-14T08:32:54.976Z,4.89
2019-04-14T08:35:23.351Z,4.92
2019-04-14T08:37:52.153Z,4.96
2019-04-14T08:40:20.946Z,5.12
2019-04-14T08:42:57.109Z,5.11
2019-04-14T08:45:29.623Z,5.12
2019-04-14T08:48:15.826Z,5.11
2019-04-14T08:50:46.012Z,5.20
2019-04-14T08:53:18.825Z,5.25
2019-04-14T08:56:05.675Z,5.33
2019-04-14T08:58:51.894Z,5.35
2019-04-14T09:01:37.258Z,5.48
2019-04-14T09:04:23.740Z,5.46
2019-04-14T09:07:09.734Z,5.48
2019-04-14T09:09:39.886Z,5.51
2019-04-14T09:12:15.845Z,5.53
2019-04-14T09:14:55.924Z,5.55
2019-04-14T09:17:13.263Z,5.55
2019-04-14T09:19:42.012Z,5.57
2019-04-14T09:22:11.590Z,5.58
2019-04-14T09:24:40.036Z,5.54
2019-04-14T09:27:08.422Z,5.63
2019-04-14T09:29:37.072Z,5.65
2019-04-14T09:32:07.255Z,5.66
2019-04-14T09:34:35.846Z,5.58
2019-04-14T09:37:04.395Z,5.67
2019-04-14T09:39:32.839Z,5.76
2019-04-14T09:42:02.195Z,5.78
2019-04-14T09:44:30.724Z,5.82
2019-04-14T09:46:59.200Z,5.88
2019-04-14T09:49:27.725Z,5.90
2019-04-14T09:51:56.306Z,5.85
2019-04-14T09:54:26.302Z,5.89
2019-04-14T09:56:54.889Z,5.95
2019-04-14T09:59:23.693Z,5.92
2019-04-14T10:01:52.210Z,5.86
2019-04-14T10:04:20.818Z,5.88
2019-04-14T10:06:49.284Z,5.92
2019-04-14T10:09:17.810Z,5.90
2019-04-14T10:11:48.873Z,5.90
2019-04-14T10:14:16.527Z,5.98
2019-04-14T10:16:45.108Z,5.98
2019-04-14T10:19:14.143Z,5.95
2019-04-14T10:21:42.592Z,6.00
2019-04-14T10:24:11.056Z,6.11
2019-04-14T10:26:39.853Z,6.07
2019-04-14T10:29:08.267Z,6.11
2019-04-14T10:31:36.704Z,6.11
2019-04-14T10:34:05.341Z,6.07
2019-04-14T10:36:33.808Z,5.96
2019-04-14T10:39:02.303Z,5.95
2019-04-14T10:41:30.786Z,5.94
2019-04-14T10:43:59.378Z,5.99
2019-04-14T10:46:28.047Z,5.98
2019-04-14T10:48:56.521Z,6.04
2019-04-14T10:51:30.395Z,6.05
2019-04-14T10:53:55.515Z,6.09
2019-04-14T10:56:25.663Z,6.06
2019-04-14T10:58:54.417Z,6.09
2019-04-14T11:01:23.047Z,6.05
2019-04-14T11:03:51.916Z,6.06
2019-04-14T11:06:39.888Z,6.04
2019-04-14T11:09:10.366Z,6.07
2019-04-14T11:11:38.794Z,6.16
2019-04-14T11:14:07.938Z,6.12
2019-04-14T11:16:36.447Z,6.20
2019-04-14T11:19:05.538Z,6.27
2019-04-14T11:21:42.305Z,6.24
2019-04-14T11:24:07.399Z,6.29
2019-04-14T11:26:35.900Z,6.30
2019-04-14T11:29:04.671Z,6.33
2019-04-14T11:31:43.264Z,6.39
2019-04-14T11:34:13.513Z,6.43
2019-04-14T11:37:00.527Z,6.53
2019-04-14T11:39:29.061Z,6.62
2019-04-14T11:41:57.536Z,6.64
2019-04-14T11:44:27.168Z,6.71
2019-04-14T11:46:55.884Z,6.80
2019-04-14T11:49:24.459Z,6.82
2019-04-14T11:51:56.037Z,6.87
2019-04-14T11:54:24.678Z,7.04
2019-04-14T11:56:53.936Z,7.09
2019-04-14T11:59:25.312Z,7.19
2019-04-14T12:02:01.453Z,7.22
2019-04-14T12:04:31.635Z,7.26
2019-04-14T12:07:10.288Z,7.44
2019-04-14T12:09:42.892Z,7.55
2019-04-14T12:12:11.498Z,7.65
2019-04-14T12:14:40.365Z,7.75
2019-04-14T12:17:08.788Z,7.88
2019-04-14T12:19:37.305Z,8.04
2019-04-14T12:22:08.622Z,8.11
2019-04-14T12:24:36.516Z,8.31
2019-04-14T12:27:05.149Z,8.47
2019-04-14T12:29:34.803Z,8.53
2019-04-14T12:32:03.929Z,8.45
2019-04-14T12:34:32.795Z,8.59
2019-04-14T12:37:01.209Z,8.67
2019-04-14T12:39:29.708Z,8.71
2019-04-14T12:41:59.797Z,8.72
2019-04-14T12:44:48.636Z,8.63
2019-04-14T12:47:39.924Z,8.69
2019-04-14T12:50:17.909Z,8.63
2019-04-14T12:52:46.465Z,8.94
2019-04-14T12:55:15.511Z,9.37
2019-04-14T12:57:51.521Z,9.57
2019-04-14T13:00:21.687Z,10.01
2019-04-14T13:02:51.871Z,10.06
2019-04-14T13:05:20.489Z,9.89
2019-04-14T13:07:49.182Z,9.74
2019-04-14T13:10:21.487Z,9.69
2019-04-14T13:12:50.050Z,9.49
2019-04-14T13:15:18.869Z,9.38
2019-04-14T13:17:47.296Z,9.26
2019-04-14T13:20:16.162Z,9.22
2019-04-14T13:22:44.831Z,9.27
2019-04-14T13:25:13.373Z,9.49
2019-04-14T13:27:41.924Z,9.77
2019-04-14T13:30:12.551Z,10.15
2019-04-14T13:32:41.771Z,10.45
2019-04-14T13:35:10.425Z,10.75
2019-04-14T13:37:39.152Z,10.84
2019-04-14T13:40:07.966Z,10.92
2019-04-14T13:42:36.686Z,10.73
2019-04-14T13:45:06.591Z,10.50
2019-04-14T13:47:35.264Z,10.35
2019-04-14T13:50:07.505Z,10.29
2019-04-14T13:52:46.162Z,10.18
2019-04-14T13:55:07.463Z,10.11
2019-04-14T13:57:36.016Z,10.20
2019-04-14T14:00:08.163Z,9.95
2019-04-14T14:02:36.646Z,9.95
2019-04-14T14:05:05.958Z,9.93
2019-04-14T14:07:34.519Z,9.99
2019-04-14T14:10:03.949Z,9.93
2019-04-14T14:12:37.306Z,9.91
2019-04-14T14:15:09.126Z,9.87
2019-04-14T14:17:45.187Z,9.86
2019-04-14T14:20:18.804Z,9.98
2019-04-14T14:22:59.447Z,9.94
2019-04-14T14:25:30.038Z,9.92
2019-04-14T14:28:00.198Z,10.01
2019-04-14T14:30:29.074Z,10.32
2019-04-14T14:32:59.017Z,10.56
2019-04-14T14:35:27.792Z,10.85
2019-04-14T14:37:56.741Z,10.95
2019-04-14T14:40:25.276Z,10.97
2019-04-14T14:42:55.767Z,10.84
2019-04-14T14:45:25.709Z,10.70
2019-04-14T14:47:58.393Z,10.61
2019-04-14T14:50:35.507Z,10.45
2019-04-14T14:53:12.042Z,10.39
2019-04-14T14:55:36.222Z,10.41
2019-04-14T14:58:05.065Z,10.38
2019-04-14T15:00:34.454Z,10.42
2019-04-14T15:03:07.395Z,10.34
2019-04-14T15:05:34.868Z,10.31
2019-04-14T15:08:03.484Z,10.30
2019-04-14T15:10:35.352Z,10.33
2019-04-14T15:13:04.257Z,10.32
2019-04-14T15:15:32.810Z,10.43
2019-04-14T15:18:01.313Z,10.50
2019-04-14T15:20:29.756Z,10.39
2019-04-14T15:22:58.281Z,10.40
2019-04-14T15:25:27.069Z,10.59
2019-04-14T15:27:55.817Z,10.63
2019-04-14T15:30:25.283Z,10.57
2019-04-14T15:32:53.836Z,10.69
2019-04-14T15:35:22.510Z,10.57
2019-04-14T15:37:50.880Z,10.55
2019-04-14T15:40:21.093Z,10.62
2019-04-14T15:42:49.745Z,10.55
2019-04-14T15:45:18.259Z,10.47
2019-04-14T15:47:47.340Z,10.47
2019-04-14T15:50:15.871Z,10.56
2019-04-14T15:52:45.991Z,10.50
2019-04-14T15:55:15.825Z,10.55
2019-04-14T15:57:48.961Z,10.46
2019-04-14T16:00:34.246Z,10.45
2019-04-14T16:03:08.678Z,10.46
2019-04-14T16:05:50.963Z,10.45
2019-04-14T16:08:21.435Z,10.44
2019-04-14T16:10:54.995Z,10.41
2019-04-14T16:13:34.819Z,10.50
2019-04-14T16:16:20.184Z,10.45
2019-04-14T16:18:51.526Z,10.47
2019-04-14T16:21:20.189Z,10.42
2019-04-14T16:23:50.812Z,10.42
2019-04-14T16:26:23.783Z,10.34
2019-04-14T16:28:56.974Z,10.37
2019-04-14T16:32:36.648Z,10.39
2019-04-14T16:35:22.914Z,10.28
2019-04-14T16:37:52.336Z,10.26
2019-04-14T16:40:23.060Z,10.28
2019-04-14T16:42:52.722Z,10.34
2019-04-14T16:45:21.912Z,10.29
2019-04-14T16:47:50.421Z,10.30
2019-04-14T16:50:19.069Z,10.33
2019-04-14T16:53:04.303Z,10.33
2019-04-14T16:55:43.439Z,10.33
2019-04-14T16:58:25.898Z,10.25
2019-04-14T17:00:56.885Z,10.25
2019-04-14T17:03:27.206Z,10.18
2019-04-14T17:05:56.037Z,10.20
2019-04-14T17:08:26.112Z,10.20
2019-04-14T17:10:54.636Z,10.21
2019-04-14T17:13:25.568Z,10.17
2019-04-14T17:15:55.792Z,10.16
2019-04-14T17:18:42.261Z,10.12
2019-04-14T17:21:27.566Z,10.17
2019-04-14T17:23:57.815Z,10.04
2019-04-14T17:26:36.869Z,10.00
2019-04-14T17:29:12.844Z,10.02
2019-04-14T17:31:58.333Z,9.98
2019-04-14T17:34:28.596Z,10.01
2019-04-14T17:37:05.019Z,9.90
2019-04-14T17:39:51.831Z,9.82
2019-04-14T17:42:31.012Z,9.90
2019-04-14T17:45:04.754Z,9.89
2019-04-14T17:47:47.744Z,9.89
2019-04-14T17:50:23.990Z,9.94
2019-04-14T17:53:08.602Z,9.93
2019-04-14T17:55:49.426Z,9.88
2019-04-14T17:58:10.615Z,9.83
2019-04-14T18:00:44.308Z,9.85
2019-04-14T18:03:30.776Z,9.80
2019-04-14T18:06:03.548Z,9.79
2019-04-14T18:08:33.678Z,9.72
2019-04-14T18:11:18.790Z,9.70
2019-04-14T18:13:51.735Z,9.70
2019-04-14T18:16:27.649Z,9.71
2019-04-14T18:19:10.042Z,9.69
2019-04-14T18:21:38.612Z,9.68
2019-04-14T18:24:07.432Z,9.62
2019-04-14T18:26:36.352Z,9.65
2019-04-14T18:29:22.741Z,9.63
2019-04-14T18:31:52.748Z,9.61
2019-04-14T18:37:34.155Z,9.53
2019-04-14T18:40:04.305Z,9.49
2019-04-14T18:42:43.077Z,9.48
2019-04-14T18:45:22.295Z,9.48
2019-04-14T18:48:07.594Z,9.53
2019-04-14T18:50:40.640Z,9.56
2019-04-14T18:53:13.838Z,9.57
2019-04-14T18:55:43.841Z,9.48
2019-04-14T18:58:30.207Z,9.39
2019-04-14T19:01:00.321Z,9.48
2019-04-14T19:03:28.703Z,9.42
2019-04-14T19:05:57.102Z,9.48
2019-04-14T19:08:25.566Z,9.47
2019-04-14T19:11:13.972Z,9.41
2019-04-14T19:13:43.983Z,9.45
2019-04-14T19:16:23.266Z,9.38
2019-04-14T19:18:53.344Z,9.46
2019-04-14T19:21:23.519Z,9.40
2019-04-14T19:23:52.292Z,9.43
2019-04-14T19:26:20.842Z,9.39
2019-04-14T19:28:49.672Z,9.29
2019-04-14T19:31:18.145Z,9.37
2019-04-14T19:33:46.565Z,9.41
2019-04-14T19:36:15.031Z,9.34
2019-04-14T19:38:43.505Z,9.27
2019-04-14T19:41:11.934Z,9.26
2019-04-14T19:43:42.641Z,9.33
2019-04-14T19:46:11.080Z,9.27
2019-04-14T19:48:41.736Z,9.24
2019-04-14T19:51:10.281Z,9.28
2019-04-14T19:53:38.674Z,9.26
2019-04-14T19:56:07.058Z,9.21
2019-04-14T19:58:35.563Z,9.09
2019-04-14T20:01:07.091Z,9.11
2019-04-14T20:03:35.000Z,9.04
2019-04-14T20:06:05.007Z,8.99
2019-04-14T20:08:33.460Z,8.97
2019-04-14T20:11:01.942Z,8.92
2019-04-14T20:13:31.946Z,8.92
2019-04-14T20:16:08.170Z,8.82
2019-04-14T20:18:38.350Z,8.79
2019-04-14T20:21:10.179Z,8.81
2019-04-14T20:23:51.666Z,8.82
2019-04-14T20:26:32.516Z,8.81
2019-04-14T20:29:05.421Z,8.72
2019-04-14T20:31:41.502Z,8.72
2019-04-14T20:34:09.979Z,8.72
2019-04-14T20:36:38.613Z,8.64
2019-04-14T20:39:09.885Z,8.64
2019-04-14T20:41:38.565Z,8.66
2019-04-14T20:44:07.110Z,8.63
2019-04-14T20:46:35.464Z,8.67
2019-04-14T20:49:04.249Z,8.61
2019-04-14T20:51:32.784Z,8.66
2019-04-14T20:54:01.247Z,8.63
2019-04-14T20:56:29.699Z,8.65
2019-04-14T20:58:58.239Z,8.69
2019-04-14T21:01:28.306Z,8.69
2019-04-14T21:04:01.401Z,8.59
2019-04-14T21:06:48.137Z,8.54
2019-04-14T21:09:27.130Z,8.51
2019-04-14T21:12:00.256Z,8.51
2019-04-14T21:14:36.038Z,8.57
2019-04-14T21:17:09.082Z,8.52
2019-04-14T21:19:58.434Z,8.54
2019-04-14T21:22:40.386Z,8.53
2019-04-14T21:25:22.598Z,8.44
2019-04-14T21:28:02.314Z,8.43
2019-04-14T21:30:44.829Z,8.41
2019-04-14T21:33:14.865Z,8.34
2019-04-14T21:35:47.411Z,8.33
2019-04-14T21:38:26.589Z,8.32
2019-04-14T21:41:08.281Z,8.32
2019-04-14T21:43:36.775Z,8.28
2019-04-14T21:46:05.281Z,8.28
2019-04-14T21:48:33.736Z,8.28
2019-04-14T21:51:02.192Z,8.19
2019-04-14T21:53:31.072Z,8.23
2019-04-14T21:56:12.465Z,8.22
2019-04-14T21:58:37.122Z,8.25
2019-04-14T22:01:38.778Z,8.23
2019-04-14T22:04:08.987Z,8.19
2019-04-14T22:06:41.624Z,8.15
2019-04-14T22:09:11.941Z,8.18
2019-04-14T22:11:40.361Z,8.08
2019-04-14T22:14:08.833Z,8.08
2019-04-14T22:16:37.248Z,7.96
2019-04-14T22:19:05.747Z,7.95
2019-04-14T22:21:34.211Z,7.93
2019-04-14T22:24:02.750Z,8.01
2019-04-14T22:26:31.138Z,7.91
2019-04-14T22:29:02.309Z,8.01
2019-04-14T22:31:30.118Z,7.95
2019-04-14T22:33:58.614Z,7.94
2019-04-14T22:36:27.106Z,7.91
2019-04-14T22:38:55.462Z,7.84
2019-04-14T22:41:23.909Z,7.85
2019-04-14T22:43:52.307Z,7.80
2019-04-14T22:46:21.013Z,7.84
2019-04-14T22:48:49.512Z,7.77
2019-04-14T22:51:18.002Z,7.78
2019-04-14T22:53:46.715Z,7.69
2019-04-14T22:56:15.456Z,7.71
2019-04-14T22:58:43.925Z,7.68
2019-04-14T23:01:17.338Z,7.70
2019-04-14T23:03:52.922Z,7.72
2019-04-14T23:06:32.117Z,7.67
2019-04-14T23:09:07.692Z,7.67
2019-04-14T23:11:46.169Z,7.70
2019-04-14T23:14:25.390Z,7.64
2019-04-14T23:17:11.665Z,7.65
2019-04-14T23:19:50.217Z,7.67
2019-04-14T23:22:38.440Z,7.60
2019-04-14T23:25:07.379Z,7.59
2019-04-14T23:27:35.813Z,7.57
2019-04-14T23:30:05.898Z,7.52
2019-04-14T23:32:34.265Z,7.54
2019-04-14T23:35:02.842Z,7.55
2019-04-14T23:37:31.278Z,7.54
2019-04-14T23:39:59.672Z,7.48
2019-04-14T23:42:28.523Z,7.54
2019-04-14T23:44:56.904Z,7.55
2019-04-14T23:47:25.431Z,7.54
2019-04-14T23:49:53.923Z,7.47
2019-04-14T23:52:22.441Z,7.42
2019-04-14T23:54:50.870Z,7.36
2019-04-14T23:57:19.386Z,7.35
2019-04-14T23:59:47.739Z,7.40
